Time;durP1;ratioP1;P1;durP2;ratioP2;P2;SDS_P1;SDS_P2;PMS_P1;PMS_P2;Temp;Humidity;BMP_temperature;BMP_pressure;BME280_temperature;BME280_humidity;BME280_pressure;Samples;Min_cycle;Max_cycle;Signal;HPM_P1;HPM_P2
2022/10/30 00:00:43;;;;;;;3.70;1.95;;;14.60;99.90;;;;;;5026143;28;20191;-71
2022/10/30 00:03:13;;;;;;;1.90;1.80;;;14.60;99.90;;;;;;5025013;28;20223;-71
2022/10/30 00:05:43;;;;;;;2.67;1.83;;;14.60;99.90;;;;;;5029045;28;20219;-70
2022/10/30 00:08:11;;;;;;;2.65;1.77;;;14.60;99.90;;;;;;5026918;28;20775;-71
2022/10/30 00:10:39;;;;;;;3.45;2.05;;;14.60;99.90;;;;;;5025776;28;20200;-71
2022/10/30 00:13:07;;;;;;;4.13;2.28;;;14.60;99.90;;;;;;5025372;28;20223;-70
2022/10/30 00:15:37;;;;;;;2.05;1.60;;;14.60;99.90;;;;;;5020745;28;20208;-70
2022/10/30 00:18:05;;;;;;;4.40;2.03;;;14.60;99.90;;;;;;5007442;28;20428;-71
2022/10/30 00:20:32;;;;;;;2.70;1.98;;;14.50;99.90;;;;;;5023937;28;20203;-71
2022/10/30 00:23:00;;;;;;;3.20;2.42;;;14.50;99.90;;;;;;5009855;28;20226;-71
2022/10/30 00:25:27;;;;;;;3.67;2.15;;;14.50;99.90;;;;;;5019786;28;20199;-71
2022/10/30 00:27:54;;;;;;;2.30;1.90;;;14.40;99.90;;;;;;5027967;28;20214;-71
2022/10/30 00:30:22;;;;;;;4.80;2.25;;;14.40;99.90;;;;;;5032561;28;20616;-71
2022/10/30 00:32:50;;;;;;;2.05;1.85;;;14.40;99.90;;;;;;5026752;28;20234;-71
2022/10/30 00:35:18;;;;;;;5.32;2.28;;;14.40;99.90;;;;;;5009671;28;20196;-71
2022/10/30 00:37:45;;;;;;;4.30;2.50;;;14.30;99.90;;;;;;5026692;28;20215;-71
2022/10/30 00:40:16;;;;;;;3.45;2.00;;;14.30;99.90;;;;;;5029155;28;20195;-71
2022/10/30 00:42:43;;;;;;;4.35;2.40;;;14.20;99.90;;;;;;5030308;28;20647;-71
2022/10/30 00:45:12;;;;;;;3.15;2.45;;;14.20;99.90;;;;;;5014390;28;20669;-71
2022/10/30 00:47:42;;;;;;;3.58;1.92;;;14.20;99.90;;;;;;5041318;28;20211;-70
2022/10/30 00:50:15;;;;;;;2.58;2.10;;;14.30;99.90;;;;;;5035358;28;20583;-70
2022/10/30 00:52:49;;;;;;;2.00;1.90;;;14.20;99.90;;;;;;5028444;28;20223;-71
2022/10/30 00:55:20;;;;;;;2.20;1.92;;;14.30;99.90;;;;;;5031134;28;20196;-71
2022/10/30 00:57:47;;;;;;;3.17;2.20;;;14.20;99.90;;;;;;5013132;28;20219;-71
2022/10/30 01:00:16;;;;;;;2.03;1.80;;;14.30;99.90;;;;;;5028751;28;20197;-71
2022/10/30 01:02:45;;;;;;;3.55;2.08;;;14.30;99.90;;;;;;5029940;28;20231;-71
2022/10/30 01:05:17;;;;;;;3.13;2.38;;;14.20;99.90;;;;;;5030940;28;20195;-70
2022/10/30 01:07:45;;;;;;;3.53;2.25;;;14.20;99.90;;;;;;5028768;28;20723;-71
2022/10/30 01:10:13;;;;;;;3.83;2.10;;;14.20;99.90;;;;;;5029303;28;20207;-71
2022/10/30 01:12:42;;;;;;;2.20;1.90;;;14.10;99.90;;;;;;5012834;28;20226;-71
2022/10/30 01:15:11;;;;;;;2.85;2.00;;;14.10;99.90;;;;;;5032256;28;20218;-71
2022/10/30 01:18:00;;;;;;;2.53;1.90;;;14.10;99.90;;;;;;5026589;28;20223;-70
2022/10/30 01:20:40;;;;;;;2.22;2.03;;;14.00;99.90;;;;;;5012869;28;20763;-71
2022/10/30 01:23:20;;;;;;;2.25;2.00;;;14.00;99.90;;;;;;5029710;28;20215;-71
2022/10/30 01:25:54;;;;;;;3.75;2.10;;;14.10;99.90;;;;;;5030115;28;20207;-70
2022/10/30 01:28:35;;;;;;;2.58;2.30;;;14.10;99.90;;;;;;5024461;28;20220;-70
2022/10/30 01:31:17;;;;;;;2.38;2.00;;;14.10;99.90;;;;;;5027492;28;20200;-70
2022/10/30 01:33:59;;;;;;;3.00;2.00;;;14.00;99.90;;;;;;5027961;28;20216;-70
2022/10/30 01:36:33;;;;;;;3.53;1.92;;;13.90;99.90;;;;;;5030550;28;20195;-70
2022/10/30 01:39:05;;;;;;;3.72;2.00;;;13.90;99.90;;;;;;5011356;28;20223;-70
2022/10/30 01:41:33;;;;;;;3.75;2.60;;;14.00;99.90;;;;;;5028272;28;20889;-71
2022/10/30 01:44:05;;;;;;;2.58;1.85;;;14.00;99.90;;;;;;5023827;28;20227;-70
2022/10/30 01:46:43;;;;;;;2.63;2.38;;;13.80;99.90;;;;;;5026657;28;20203;-71
2022/10/30 01:49:38;;;;;;;2.30;2.10;;;13.80;99.90;;;;;;5028858;28;20278;-70
2022/10/30 01:52:17;;;;;;;2.25;2.05;;;13.80;99.90;;;;;;5024055;28;20241;-71
2022/10/30 01:54:53;;;;;;;2.42;2.22;;;13.90;99.90;;;;;;5029491;28;20195;-70
2022/10/30 01:57:31;;;;;;;2.67;2.35;;;13.90;99.90;;;;;;5027074;28;20222;-71
2022/10/30 02:00:02;;;;;;;5.40;2.22;;;13.90;99.90;;;;;;5033317;28;20192;-70
2022/10/30 02:02:31;;;;;;;4.22;2.30;;;13.90;99.90;;;;;;5024201;28;20234;-70
2022/10/30 02:04:59;;;;;;;6.47;2.63;;;13.90;99.90;;;;;;5010570;28;20196;-70
2022/10/30 02:07:28;;;;;;;2.60;2.10;;;13.80;99.90;;;;;;5029443;28;20219;-71
2022/10/30 02:09:56;;;;;;;3.03;2.50;;;13.80;99.90;;;;;;5031789;28;20207;-70
2022/10/30 02:12:25;;;;;;;4.03;2.40;;;13.70;99.90;;;;;;5009382;28;20608;-71
2022/10/30 02:14:56;;;;;;;9.75;2.58;;;13.60;99.90;;;;;;5028195;28;20203;-70
2022/10/30 02:17:24;;;;;;;5.15;2.22;;;13.60;99.90;;;;;;5027478;28;20226;-71
2022/10/30 02:19:51;;;;;;;2.67;1.92;;;13.60;99.90;;;;;;5031310;28;20200;-71
2022/10/30 02:22:20;;;;;;;2.40;2.20;;;13.60;99.90;;;;;;5029739;28;20270;-71
2022/10/30 02:24:47;;;;;;;3.97;2.50;;;13.60;99.90;;;;;;5009840;28;20222;-71
2022/10/30 02:27:15;;;;;;;2.35;2.00;;;13.60;99.90;;;;;;5028310;28;20226;-71
2022/10/30 02:29:42;;;;;;;2.55;2.05;;;13.70;99.90;;;;;;5025757;28;20583;-70
2022/10/30 02:32:10;;;;;;;2.95;2.05;;;13.70;99.90;;;;;;5010589;28;20589;-71
2022/10/30 02:34:37;;;;;;;3.00;1.95;;;13.70;99.90;;;;;;5008533;28;20203;-71
2022/10/30 02:37:04;;;;;;;2.20;2.00;;;13.70;99.90;;;;;;5028326;28;20590;-71
2022/10/30 02:39:33;;;;;;;4.40;2.30;;;13.80;99.90;;;;;;5027512;28;20197;-71
2022/10/30 02:42:01;;;;;;;2.83;2.50;;;13.80;99.90;;;;;;5030387;28;20227;-71
2022/10/30 02:44:29;;;;;;;3.47;2.58;;;13.70;99.90;;;;;;5012510;28;20203;-71
2022/10/30 02:46:56;;;;;;;3.15;2.38;;;13.70;99.90;;;;;;5030343;28;20219;-71
2022/10/30 02:49:23;;;;;;;2.38;2.03;;;13.70;99.90;;;;;;5025596;28;20227;-71
2022/10/30 02:51:51;;;;;;;3.58;2.30;;;13.60;99.90;;;;;;5028474;28;20254;-71
2022/10/30 02:54:18;;;;;;;3.08;2.03;;;13.60;99.90;;;;;;5026344;28;20195;-71
2022/10/30 02:56:47;;;;;;;2.10;1.90;;;13.60;99.90;;;;;;5025559;28;20203;-70
2022/10/30 02:59:14;;;;;;;2.97;2.40;;;13.60;99.90;;;;;;5008837;28;20613;-70
2022/10/30 03:01:42;;;;;;;2.58;2.05;;;13.60;99.90;;;;;;5020521;28;20553;-71
2022/10/30 03:04:09;;;;;;;2.58;2.35;;;13.60;99.90;;;;;;5025513;28;20680;-70
2022/10/30 03:06:36;;;;;;;3.42;2.47;;;13.50;99.90;;;;;;5030575;28;20196;-72
2022/10/30 03:09:04;;;;;;;2.33;2.05;;;13.50;99.90;;;;;;5027452;28;20206;-71
2022/10/30 03:11:34;;;;;;;3.30;2.10;;;13.40;99.90;;;;;;5026313;28;20208;-71
2022/10/30 03:14:03;;;;;;;2.60;2.20;;;13.50;99.90;;;;;;5029390;28;20212;-70
2022/10/30 03:16:30;;;;;;;3.15;2.22;;;13.50;99.90;;;;;;5025438;28;20196;-71
2022/10/30 03:18:58;;;;;;;3.58;2.10;;;13.40;99.90;;;;;;5024354;28;20286;-71
2022/10/30 03:21:27;;;;;;;2.95;2.38;;;13.40;99.90;;;;;;5029119;28;20206;-70
2022/10/30 03:23:55;;;;;;;3.17;1.77;;;13.40;99.90;;;;;;5027006;28;20627;-70
2022/10/30 03:26:23;;;;;;;2.88;1.88;;;13.40;99.90;;;;;;5026134;28;20218;-70
2022/10/30 03:28:50;;;;;;;3.00;2.08;;;13.40;99.90;;;;;;5025157;28;20220;-70
2022/10/30 03:31:20;;;;;;;2.90;2.15;;;13.40;99.90;;;;;;5021778;28;20896;-70
2022/10/30 03:33:47;;;;;;;2.47;1.73;;;13.30;99.90;;;;;;5028548;28;20246;-71
2022/10/30 03:36:15;;;;;;;3.03;1.88;;;13.30;99.90;;;;;;4990488;28;20284;-70
2022/10/30 03:38:43;;;;;;;2.08;1.90;;;13.30;99.90;;;;;;5009846;28;20228;-71
2022/10/30 03:41:11;;;;;;;3.25;2.30;;;13.30;99.90;;;;;;5009081;28;20196;-71
2022/10/30 03:43:38;;;;;;;3.72;2.20;;;13.30;99.90;;;;;;5005894;28;20220;-71
2022/10/30 03:46:06;;;;;;;5.40;2.38;;;13.30;99.90;;;;;;5011172;28;20200;-71
2022/10/30 03:48:34;;;;;;;2.70;2.15;;;13.30;99.90;;;;;;5006611;28;20216;-71
2022/10/30 03:51:02;;;;;;;7.03;2.85;;;13.30;99.90;;;;;;5026663;28;20195;-71
2022/10/30 03:53:30;;;;;;;5.97;2.55;;;13.30;99.90;;;;;;5023491;28;20216;-71
2022/10/30 03:56:01;;;;;;;3.72;2.38;;;13.20;99.90;;;;;;5007291;28;20199;-71
2022/10/30 03:58:30;;;;;;;4.60;2.40;;;13.20;99.90;;;;;;5020787;28;20227;-71
2022/10/30 04:01:01;;;;;;;3.05;2.33;;;13.10;99.90;;;;;;5026751;28;20211;-71
2022/10/30 04:03:29;;;;;;;3.00;2.30;;;13.10;99.90;;;;;;5008195;28;20219;-71
2022/10/30 04:05:57;;;;;;;2.60;1.90;;;13.10;99.90;;;;;;5030264;28;20195;-71
2022/10/30 04:08:25;;;;;;;3.00;2.33;;;13.00;99.90;;;;;;5004599;28;20277;-71
2022/10/30 04:10:52;;;;;;;5.85;2.65;;;13.00;99.90;;;;;;5031399;28;20195;-70
2022/10/30 04:13:20;;;;;;;3.85;2.30;;;13.10;99.90;;;;;;5026937;28;20246;-70
2022/10/30 04:15:49;;;;;;;3.38;2.10;;;13.10;99.90;;;;;;5026837;28;20207;-70
2022/10/30 04:18:18;;;;;;;2.45;2.25;;;13.10;99.90;;;;;;5024783;28;20739;-70
2022/10/30 04:20:46;;;;;;;3.28;2.33;;;13.10;99.90;;;;;;5008105;28;20196;-70
2022/10/30 04:23:17;;;;;;;2.80;2.10;;;13.10;99.90;;;;;;5027310;28;20701;-70
2022/10/30 04:25:45;;;;;;;3.08;2.40;;;13.10;99.90;;;;;;5010360;28;20196;-70
2022/10/30 04:28:12;;;;;;;2.90;2.40;;;13.10;99.90;;;;;;5028611;28;20215;-70
2022/10/30 04:30:40;;;;;;;3.55;2.15;;;13.00;99.90;;;;;;5015329;28;20577;-70
2022/10/30 04:33:10;;;;;;;2.40;2.20;;;13.10;99.90;;;;;;5022486;28;20266;-70
2022/10/30 04:35:38;;;;;;;2.20;2.00;;;13.10;99.90;;;;;;5028486;28;20204;-70
2022/10/30 04:38:07;;;;;;;3.60;2.20;;;13.10;99.90;;;;;;5023010;28;20227;-70
2022/10/30 04:40:39;;;;;;;2.85;1.98;;;13.00;99.90;;;;;;5021370;28;20203;-70
2022/10/30 04:43:07;;;;;;;2.60;2.40;;;13.00;99.90;;;;;;5004023;28;20588;-70
2022/10/30 04:45:35;;;;;;;3.53;2.20;;;13.00;99.90;;;;;;5025915;28;20200;-70
2022/10/30 04:48:03;;;;;;;2.67;2.00;;;13.00;99.90;;;;;;5009524;28;20219;-70
2022/10/30 04:50:32;;;;;;;2.30;2.10;;;13.00;99.90;;;;;;5024636;28;20203;-70
2022/10/30 04:53:00;;;;;;;4.93;2.05;;;13.00;99.90;;;;;;5024758;28;20216;-71
2022/10/30 04:55:28;;;;;;;3.55;2.53;;;13.00;99.90;;;;;;5023273;28;20214;-70
2022/10/30 04:57:58;;;;;;;2.75;2.20;;;13.00;99.90;;;;;;4989586;28;20216;-71
2022/10/30 05:00:27;;;;;;;4.40;2.50;;;13.00;99.90;;;;;;5007541;28;20204;-70
2022/10/30 05:02:54;;;;;;;2.97;2.15;;;13.00;99.90;;;;;;5022579;28;20230;-70
2022/10/30 05:05:22;;;;;;;3.30;2.00;;;13.00;99.90;;;;;;5007847;28;20307;-70
2022/10/30 05:07:49;;;;;;;2.50;2.30;;;13.00;99.90;;;;;;5023697;28;20222;-70
2022/10/30 05:10:17;;;;;;;2.95;2.10;;;12.90;99.90;;;;;;5026325;28;20196;-70
2022/10/30 05:12:45;;;;;;;3.65;2.10;;;13.00;99.90;;;;;;5009407;28;20216;-70
2022/10/30 05:15:15;;;;;;;2.67;1.98;;;13.00;99.90;;;;;;5022062;28;20279;-71
2022/10/30 05:17:42;;;;;;;1.83;1.70;;;12.90;99.90;;;;;;5004029;28;20215;-71
2022/10/30 05:20:10;;;;;;;3.00;2.20;;;12.90;99.90;;;;;;5024237;28;20203;-70
2022/10/30 05:22:37;;;;;;;3.95;2.65;;;13.00;99.90;;;;;;5028216;28;20234;-70
2022/10/30 05:25:06;;;;;;;4.00;2.30;;;13.00;99.90;;;;;;5009768;28;20200;-71
2022/10/30 05:27:33;;;;;;;2.78;2.30;;;13.00;99.90;;;;;;5020493;28;20219;-71
2022/10/30 05:30:01;;;;;;;2.33;1.60;;;12.90;99.90;;;;;;5025109;28;20699;-71
2022/10/30 05:32:29;;;;;;;2.38;2.10;;;13.00;99.90;;;;;;5026859;28;20224;-71
2022/10/30 05:34:57;;;;;;;2.78;2.03;;;12.90;99.90;;;;;;5014787;28;20897;-71
2022/10/30 05:37:24;;;;;;;6.47;2.80;;;12.90;99.90;;;;;;5029260;28;20222;-71
2022/10/30 05:39:51;;;;;;;2.95;2.03;;;12.90;99.90;;;;;;5026875;28;20262;-70
2022/10/30 05:42:19;;;;;;;2.80;2.00;;;12.90;99.90;;;;;;5029969;28;20230;-71
2022/10/30 05:44:46;;;;;;;3.45;2.28;;;12.90;99.90;;;;;;5028737;28;20204;-70
2022/10/30 05:47:13;;;;;;;3.72;2.40;;;12.90;99.90;;;;;;5007110;28;20265;-71
2022/10/30 05:49:42;;;;;;;2.42;2.22;;;12.80;99.90;;;;;;5009956;28;20211;-70
2022/10/30 05:52:09;;;;;;;3.80;2.13;;;12.80;99.90;;;;;;5028870;28;20731;-71
2022/10/30 05:54:37;;;;;;;3.15;2.22;;;12.80;99.90;;;;;;5029570;28;20211;-71
2022/10/30 05:57:04;;;;;;;4.20;2.25;;;12.70;99.90;;;;;;5027936;28;20227;-71
2022/10/30 05:59:31;;;;;;;3.20;1.83;;;12.70;99.90;;;;;;5028525;28;20192;-71
2022/10/30 06:01:59;;;;;;;3.67;2.13;;;12.80;99.90;;;;;;5003297;28;20231;-71
2022/10/30 06:04:26;;;;;;;2.67;2.10;;;12.80;99.90;;;;;;5030773;28;20200;-71
2022/10/30 06:06:55;;;;;;;4.00;2.05;;;12.80;99.90;;;;;;5012411;28;20628;-70
2022/10/30 06:09:22;;;;;;;2.88;1.92;;;12.80;99.90;;;;;;5028615;28;20199;-71
2022/10/30 06:11:49;;;;;;;3.10;2.10;;;12.80;99.90;;;;;;5029102;28;20205;-71
2022/10/30 06:14:16;;;;;;;2.78;2.28;;;12.80;99.90;;;;;;5024954;28;20228;-71
2022/10/30 06:16:44;;;;;;;3.88;2.30;;;12.80;99.90;;;;;;5024924;28;20199;-71
2022/10/30 06:19:11;;;;;;;2.10;1.90;;;12.90;99.90;;;;;;5025653;28;20200;-71
2022/10/30 06:21:38;;;;;;;1.75;1.55;;;13.00;99.90;;;;;;5025444;28;20214;-72
2022/10/30 06:24:08;;;;;;;3.35;1.85;;;13.10;99.90;;;;;;5011212;28;20195;-71
2022/10/30 06:26:35;;;;;;;5.70;2.97;;;13.10;99.90;;;;;;5028221;28;20192;-71
2022/10/30 06:29:03;;;;;;;3.47;1.83;;;13.10;99.90;;;;;;5031983;28;20196;-71
2022/10/30 06:31:30;;;;;;;4.50;2.90;;;13.20;99.90;;;;;;5024192;28;20200;-71
2022/10/30 06:33:57;;;;;;;5.00;2.58;;;13.20;99.90;;;;;;5029359;28;20235;-71
2022/10/30 06:36:25;;;;;;;4.35;2.08;;;13.10;99.90;;;;;;5023754;28;20200;-70
2022/10/30 06:38:52;;;;;;;4.90;2.35;;;13.10;99.90;;;;;;5027482;28;20226;-70
2022/10/30 06:41:21;;;;;;;3.80;2.42;;;13.10;99.90;;;;;;5025354;28;20207;-70
2022/10/30 06:43:49;;;;;;;3.03;2.30;;;13.20;99.90;;;;;;5026365;28;20723;-70
2022/10/30 06:46:16;;;;;;;3.58;2.28;;;13.20;99.90;;;;;;5026178;28;20199;-70
2022/10/30 06:48:43;;;;;;;8.23;2.72;;;13.20;99.90;;;;;;5030348;28;20216;-70
2022/10/30 06:51:14;;;;;;;3.13;2.35;;;13.20;99.90;;;;;;5012410;28;20246;-70
2022/10/30 06:53:41;;;;;;;4.63;2.00;;;13.30;99.90;;;;;;5028371;28;20224;-70
2022/10/30 06:56:09;;;;;;;5.40;2.90;;;13.30;99.90;;;;;;5025771;28;20219;-70
2022/10/30 06:58:38;;;;;;;4.53;2.97;;;13.20;99.90;;;;;;5010557;28;20627;-70
2022/10/30 07:01:06;;;;;;;6.57;3.13;;;13.20;99.90;;;;;;5030128;28;20286;-70
2022/10/30 07:03:34;;;;;;;3.65;2.80;;;13.20;99.90;;;;;;5026844;28;20216;-70
2022/10/30 07:06:02;;;;;;;4.63;2.80;;;13.80;99.90;;;;;;5028318;28;20204;-70
2022/10/30 07:08:29;;;;;;;3.55;2.85;;;14.50;99.90;;;;;;5024039;28;20284;-70
2022/10/30 07:10:57;;;;;;;2.63;2.25;;;15.20;99.90;;;;;;5010654;28;20257;-70
2022/10/30 07:13:25;;;;;;;4.80;2.75;;;15.80;99.90;;;;;;5027905;28;20219;-71
2022/10/30 07:15:54;;;;;;;4.47;2.65;;;16.40;99.90;;;;;;5028238;28;20200;-70
2022/10/30 07:18:21;;;;;;;6.63;2.67;;;17.00;99.90;;;;;;5026384;28;20219;-70
2022/10/30 07:20:48;;;;;;;4.53;2.72;;;17.50;99.90;;;;;;5029630;28;20200;-71
2022/10/30 07:23:16;;;;;;;3.92;2.85;;;18.00;99.90;;;;;;5025468;28;20220;-71
2022/10/30 07:25:43;;;;;;;6.60;3.47;;;18.30;99.90;;;;;;5028713;28;20199;-71
2022/10/30 07:28:10;;;;;;;7.22;2.90;;;18.60;99.90;;;;;;5025319;28;20588;-71
2022/10/30 07:30:38;;;;;;;5.18;3.40;;;18.70;99.90;;;;;;5025221;28;20196;-71
2022/10/30 07:33:07;;;;;;;6.07;3.00;;;18.60;99.90;;;;;;5020066;28;20238;-71
2022/10/30 07:35:36;;;;;;;6.80;3.00;;;18.70;99.90;;;;;;5031203;28;20195;-71
2022/10/30 07:38:04;;;;;;;6.07;3.38;;;18.60;99.90;;;;;;5024041;28;20231;-71
2022/10/30 07:40:32;;;;;;;4.03;2.50;;;18.70;99.90;;;;;;5023400;28;20208;-71
2022/10/30 07:43:00;;;;;;;4.20;2.78;;;18.80;99.90;;;;;;5021376;28;20235;-71
2022/10/30 07:45:27;;;;;;;5.05;2.67;;;19.20;99.90;;;;;;5027051;28;20614;-71
2022/10/30 07:47:55;;;;;;;6.20;3.45;;;19.50;99.90;;;;;;5011229;28;20215;-71
2022/10/30 07:50:24;;;;;;;4.93;3.42;;;20.00;99.90;;;;;;5025187;28;20196;-71
2022/10/30 07:52:52;;;;;;;7.53;3.28;;;20.20;99.90;;;;;;5027078;28;20224;-71
2022/10/30 07:55:19;;;;;;;4.35;3.10;;;20.50;99.90;;;;;;5025005;28;20231;-71
2022/10/30 07:57:47;;;;;;;7.13;2.90;;;20.60;99.90;;;;;;5029725;28;20246;-71
2022/10/30 08:00:15;;;;;;;4.13;2.80;;;21.00;99.90;;;;;;5030579;28;20211;-71
2022/10/30 08:02:43;;;;;;;7.18;2.88;;;21.20;99.90;;;;;;5023414;28;20231;-71
2022/10/30 08:05:10;;;;;;;5.07;2.65;;;21.40;99.90;;;;;;5029880;28;20202;-71
2022/10/30 08:07:39;;;;;;;6.65;3.13;;;21.70;99.90;;;;;;5008786;28;20642;-71
2022/10/30 08:10:08;;;;;;;5.18;3.10;;;21.90;99.90;;;;;;5031469;28;20196;-71
2022/10/30 08:12:39;;;;;;;5.68;2.58;;;22.10;99.90;;;;;;5005859;28;20257;-72
2022/10/30 08:15:08;;;;;;;6.78;2.97;;;22.20;99.90;;;;;;5025999;28;20219;-74
2022/10/30 08:17:43;;;;;;;6.75;3.05;;;22.30;99.90;;;;;;5021735;28;20220;-73
2022/10/30 08:20:12;;;;;;;8.35;3.10;;;22.30;99.90;;;;;;5028103;28;20282;-75
2022/10/30 08:22:48;;;;;;;6.03;2.95;;;22.40;99.90;;;;;;5017961;28;20245;-74
2022/10/30 08:25:17;;;;;;;8.57;3.30;;;22.50;99.90;;;;;;5008095;28;20191;-74
2022/10/30 08:27:53;;;;;;;7.53;3.22;;;22.60;99.90;;;;;;5023795;28;20215;-73
2022/10/30 08:30:21;;;;;;;5.55;3.42;;;22.70;99.90;;;;;;5023019;28;20249;-73
2022/10/30 08:32:49;;;;;;;8.32;4.55;;;22.80;99.90;;;;;;5030390;28;20223;-73
2022/10/30 08:35:17;;;;;;;7.32;3.83;;;22.60;99.90;;;;;;5024549;28;20247;-73
2022/10/30 08:37:45;;;;;;;4.90;3.58;;;22.50;99.90;;;;;;5021660;28;20219;-73
2022/10/30 08:40:14;;;;;;;8.20;4.28;;;22.50;99.90;;;;;;4991800;28;20815;-73
2022/10/30 08:42:41;;;;;;;6.15;3.53;;;22.30;99.90;;;;;;5029386;28;20222;-73
2022/10/30 08:45:09;;;;;;;5.60;3.72;;;22.30;99.90;;;;;;5025212;28;20188;-72
2022/10/30 08:47:37;;;;;;;5.05;3.05;;;22.50;99.90;;;;;;5008329;28;20293;-73
2022/10/30 08:50:05;;;;;;;6.30;3.20;;;22.70;99.90;;;;;;5009422;28;20210;-73
2022/10/30 08:52:32;;;;;;;6.75;3.33;;;22.60;99.90;;;;;;5022421;28;20223;-72
2022/10/30 08:54:59;;;;;;;6.18;3.33;;;22.70;99.90;;;;;;5016078;28;20223;-72
2022/10/30 08:57:28;;;;;;;5.82;2.83;;;22.90;99.90;;;;;;5015518;28;20235;-72
2022/10/30 08:59:56;;;;;;;5.13;2.67;;;23.00;99.90;;;;;;5016768;28;20207;-72
2022/10/30 09:02:23;;;;;;;6.82;3.10;;;23.40;99.90;;;;;;5021677;28;20625;-73
2022/10/30 09:04:50;;;;;;;7.18;3.20;;;23.70;99.90;;;;;;5002672;28;20206;-75
2022/10/30 09:07:18;;;;;;;6.50;3.40;;;23.70;99.90;;;;;;5018768;28;20223;-73
2022/10/30 09:09:45;;;;;;;6.97;3.42;;;23.40;99.90;;;;;;5001001;28;20655;-73
2022/10/30 09:12:13;;;;;;;5.18;3.08;;;23.40;99.90;;;;;;5018700;28;20238;-73
2022/10/30 09:14:42;;;;;;;6.13;3.08;;;23.20;99.90;;;;;;5019224;28;20234;-73
2022/10/30 09:17:09;;;;;;;4.35;2.67;;;23.00;99.90;;;;;;5016595;28;20223;-73
2022/10/30 09:19:37;;;;;;;6.72;3.42;;;22.80;99.90;;;;;;5018577;28;20574;-73
2022/10/30 09:22:04;;;;;;;7.25;3.42;;;22.60;99.90;;;;;;5019363;28;20316;-73
2022/10/30 09:24:31;;;;;;;6.35;2.80;;;22.50;99.90;;;;;;5020354;28;20196;-73
2022/10/30 09:26:59;;;;;;;8.20;2.80;;;22.60;99.90;;;;;;5018065;28;20224;-73
2022/10/30 09:29:26;;;;;;;5.72;3.10;;;22.80;99.90;;;;;;5002630;28;20610;-73
2022/10/30 09:31:55;;;;;;;6.47;2.90;;;23.10;99.90;;;;;;5000812;28;20259;-73
2022/10/30 09:34:22;;;;;;;7.05;3.22;;;23.20;99.90;;;;;;5019680;28;20228;-73
2022/10/30 09:36:50;;;;;;;6.45;2.97;;;23.20;99.90;;;;;;5020938;28;20204;-73
2022/10/30 09:39:18;;;;;;;7.93;3.53;;;23.20;99.90;;;;;;5018735;28;20192;-73
2022/10/30 09:42:07;;;;;;;7.32;3.58;;;23.00;99.90;;;;;;5002802;28;20196;-73
2022/10/30 09:44:46;;;;;;;7.32;3.05;;;22.80;99.90;;;;;;5019569;28;20232;-73
2022/10/30 09:47:28;;;;;;;7.97;3.50;;;22.80;99.90;;;;;;5019402;28;20216;-72
2022/10/30 09:50:12;;;;;;;6.43;2.90;;;23.00;99.90;;;;;;5020968;28;20196;-73
2022/10/30 09:52:46;;;;;;;4.15;2.60;;;23.20;99.90;;;;;;5018338;28;20231;-72
2022/10/30 09:55:27;;;;;;;7.90;2.50;;;23.10;99.90;;;;;;5001926;28;20227;-73
2022/10/30 09:58:04;;;;;;;7.00;3.03;;;23.00;99.90;;;;;;5018559;28;20250;-72
2022/10/30 10:00:38;;;;;;;6.20;2.97;;;23.20;99.90;;;;;;5027231;28;20203;-72
2022/10/30 10:03:38;;;;;;;8.70;2.88;;;23.30;99.90;;;;;;5026665;28;20822;-73
2022/10/30 10:06:16;;;;;;;5.95;3.20;;;23.40;99.90;;;;;;5017060;28;20207;-72
2022/10/30 10:08:48;;;;;;;7.20;2.70;;;23.40;99.90;;;;;;5000234;28;20223;-72
2022/10/30 10:11:19;;;;;;;9.15;3.08;;;23.50;99.90;;;;;;5018529;28;20255;-73
2022/10/30 10:13:51;;;;;;;5.45;2.78;;;23.50;99.90;;;;;;5000471;28;20227;-73
2022/10/30 10:16:20;;;;;;;6.72;2.90;;;23.50;99.90;;;;;;5016125;28;20641;-72
2022/10/30 10:18:50;;;;;;;5.18;3.00;;;23.50;99.90;;;;;;4999874;28;20254;-73
2022/10/30 10:21:26;;;;;;;5.60;2.70;;;23.50;99.90;;;;;;5017873;28;20202;-73
2022/10/30 10:23:56;;;;;;;3.83;2.28;;;23.80;99.90;;;;;;5001141;28;20231;-71
2022/10/30 10:26:48;;;;;;;5.47;2.70;;;23.80;99.90;;;;;;5019035;28;20691;-71
2022/10/30 10:29:38;;;;;;;5.25;2.55;;;23.80;99.90;;;;;;5017704;28;20234;-71
2022/10/30 10:32:42;;;;;;;4.03;2.65;;;23.70;99.90;;;;;;4990099;28;20234;-70
2022/10/30 10:35:47;;;;;;;6.15;2.65;;;23.50;99.90;;;;;;5017953;28;20234;-71
2022/10/30 10:38:28;;;;;;;5.07;2.75;;;23.40;99.90;;;;;;5016983;28;20219;-71
2022/10/30 10:41:10;;;;;;;4.43;2.60;;;23.40;99.90;;;;;;5019106;28;20211;-71
2022/10/30 10:43:49;;;;;;;6.07;2.88;;;23.40;99.90;;;;;;5017232;28;20220;-71
2022/10/30 10:46:30;;;;;;;6.70;2.83;;;23.10;99.90;;;;;;5017699;28;20210;-71
2022/10/30 10:49:11;;;;;;;6.45;3.05;;;23.10;99.90;;;;;;5018811;28;20684;-71
2022/10/30 10:51:40;;;;;;;7.40;3.13;;;23.00;99.90;;;;;;5017775;28;20223;-71
2022/10/30 10:54:14;;;;;;;6.18;3.10;;;22.90;99.90;;;;;;5018826;28;20209;-71
2022/10/30 10:56:45;;;;;;;8.25;2.70;;;22.70;99.90;;;;;;5016917;28;20201;-71
2022/10/30 10:59:18;;;;;;;6.32;2.90;;;22.60;99.90;;;;;;5016487;28;20208;-71
2022/10/30 11:01:53;;;;;;;5.00;2.50;;;22.70;99.90;;;;;;5015881;28;20200;-71
2022/10/30 11:04:29;;;;;;;5.95;2.63;;;22.80;99.90;;;;;;5018157;28;20206;-72
2022/10/30 11:06:57;;;;;;;4.50;2.60;;;23.20;99.90;;;;;;5017501;28;20234;-71
2022/10/30 11:09:27;;;;;;;6.68;2.63;;;23.40;99.90;;;;;;4998396;28;20200;-72
2022/10/30 11:11:55;;;;;;;6.40;2.97;;;23.60;99.90;;;;;;4999321;28;21598;-72
2022/10/30 11:14:25;;;;;;;5.93;2.67;;;23.60;99.90;;;;;;5016050;28;20286;-72
2022/10/30 11:17:01;;;;;;;5.70;2.65;;;23.60;99.90;;;;;;5022662;28;20219;-72
2022/10/30 11:19:31;;;;;;;7.10;3.05;;;23.40;99.90;;;;;;5028438;28;20207;-72
2022/10/30 11:21:59;;;;;;;8.13;3.47;;;23.40;99.90;;;;;;5026256;28;20219;-72
2022/10/30 11:24:30;;;;;;;6.38;3.17;;;23.40;99.90;;;;;;5028237;28;20195;-73
2022/10/30 11:26:59;;;;;;;6.03;2.92;;;23.40;99.90;;;;;;5028509;28;20223;-73
2022/10/30 11:29:29;;;;;;;6.13;3.00;;;23.30;99.90;;;;;;5028495;28;20211;-71
2022/10/30 11:32:11;;;;;;;5.75;2.60;;;23.00;99.90;;;;;;5023960;28;20313;-72
2022/10/30 11:34:38;;;;;;;6.10;3.20;;;23.10;99.90;;;;;;5010905;28;20695;-71
2022/10/30 11:37:26;;;;;;;9.75;3.40;;;23.10;99.90;;;;;;5025485;28;20631;-72
2022/10/30 11:40:04;;;;;;;4.88;2.75;;;23.20;99.90;;;;;;5023788;28;20200;-71
2022/10/30 11:42:32;;;;;;;6.07;3.15;;;23.10;99.90;;;;;;5006078;28;20230;-71
2022/10/30 11:44:59;;;;;;;7.40;3.10;;;23.10;99.90;;;;;;5013102;28;20245;-71
2022/10/30 11:47:32;;;;;;;6.47;3.10;;;23.10;99.90;;;;;;5020391;28;20231;-71
2022/10/30 11:50:02;;;;;;;8.63;3.15;;;23.00;99.90;;;;;;5026922;28;20202;-71
2022/10/30 11:52:29;;;;;;;6.75;3.28;;;23.20;99.90;;;;;;5021383;28;20236;-71
2022/10/30 11:55:00;;;;;;;9.38;3.03;;;23.20;99.90;;;;;;5029231;28;20602;-71
2022/10/30 11:57:36;;;;;;;5.88;3.20;;;23.20;99.90;;;;;;5026312;28;20231;-71
2022/10/30 12:00:06;;;;;;;7.45;3.53;;;23.30;99.90;;;;;;5008304;28;20613;-71
2022/10/30 12:02:42;;;;;;;5.65;2.70;;;23.20;99.90;;;;;;5022107;28;20219;-71
2022/10/30 12:05:35;;;;;;;6.57;3.15;;;23.30;99.90;;;;;;5028471;28;20192;-71
2022/10/30 12:08:23;;;;;;;4.68;2.60;;;23.50;99.90;;;;;;5026926;28;20215;-71
2022/10/30 12:11:00;;;;;;;5.95;2.92;;;23.50;99.90;;;;;;5016568;28;20684;-71
2022/10/30 12:13:37;;;;;;;7.18;3.25;;;23.50;99.90;;;;;;5026087;28;20226;-71
2022/10/30 12:16:08;;;;;;;5.95;3.10;;;23.70;99.90;;;;;;5025471;28;20227;-71
2022/10/30 12:18:36;;;;;;;3.92;2.70;;;23.60;99.90;;;;;;5006985;28;20597;-71
2022/10/30 12:21:04;;;;;;;5.55;2.53;;;23.60;99.90;;;;;;5008855;28;20196;-71
2022/10/30 12:23:32;;;;;;;5.03;3.13;;;23.50;99.90;;;;;;5024576;28;20235;-71
2022/10/30 12:26:02;;;;;;;6.10;2.70;;;23.60;99.90;;;;;;5026502;28;20241;-71
2022/10/30 12:28:33;;;;;;;6.25;3.00;;;23.60;99.90;;;;;;5024215;28;20219;-71
2022/10/30 12:31:04;;;;;;;6.13;2.70;;;23.70;99.90;;;;;;5026203;28;20244;-71
2022/10/30 12:33:37;;;;;;;5.25;2.42;;;23.70;99.90;;;;;;5023766;28;20223;-71
2022/10/30 12:36:07;;;;;;;4.13;2.72;;;23.70;99.90;;;;;;5025648;28;20688;-71
2022/10/30 12:38:38;;;;;;;6.00;2.90;;;23.80;99.90;;;;;;5031652;28;20708;-71
2022/10/30 12:41:20;;;;;;;4.07;2.90;;;23.70;99.90;;;;;;5014343;28;20406;-71
2022/10/30 12:43:58;;;;;;;11.00;3.03;;;23.60;99.90;;;;;;5025666;28;20237;-71
2022/10/30 12:46:34;;;;;;;6.70;2.80;;;23.60;99.90;;;;;;5009694;28;20202;-71
2022/10/30 12:49:11;;;;;;;6.53;2.45;;;23.50;99.90;;;;;;5035675;28;20564;-71
2022/10/30 12:51:50;;;;;;;4.13;2.38;;;23.60;99.90;;;;;;5029333;28;20207;-71
2022/10/30 12:54:26;;;;;;;7.03;2.63;;;23.70;99.90;;;;;;5034070;28;20195;-71
2022/10/30 12:57:09;;;;;;;7.75;3.00;;;23.70;99.90;;;;;;5010491;28;20750;-72
2022/10/30 12:59:46;;;;;;;7.72;3.25;;;23.70;99.90;;;;;;5010670;28;20195;-71
2022/10/30 13:02:26;;;;;;;7.60;2.97;;;23.70;99.90;;;;;;5031208;28;20219;-71
2022/10/30 13:04:59;;;;;;;6.35;3.15;;;23.70;99.90;;;;;;5027817;28;20609;-71